Time;durP1;ratioP1;P1;durP2;ratioP2;P2;SDS_P1;SDS_P2;PMS_P1;PMS_P2;Temp;Humidity;BMP_temperature;BMP_pressure;BME280_temperature;BME280_humidity;BME280_pressure;Samples;Min_cycle;Max_cycle;Signal;HPM_P1;HPM_P2
2023/02/11 00:01:30;;;;;;;44.22;22.95;;;;;;;1.32;91.66;102223.69;5005673;28;20059;-78
2023/02/11 00:03:56;;;;;;;36.60;21.63;;;;;;;1.35;92.16;102228.19;5003912;28;20043;-77
2023/02/11 00:06:23;;;;;;;36.45;22.17;;;;;;;1.40;91.93;102226.75;5010464;28;20564;-77
2023/02/11 00:08:48;;;;;;;41.90;22.50;;;;;;;1.44;91.81;102220.91;5008633;28;20092;-77
2023/02/11 00:11:15;;;;;;;38.90;21.17;;;;;;;1.49;91.89;102225.59;5011817;28;20085;-78
2023/02/11 00:13:44;;;;;;;38.15;22.90;;;;;;;1.53;91.36;102218.84;5015672;28;20187;-78
2023/02/11 00:16:15;;;;;;;42.28;22.83;;;;;;;1.52;91.50;102204.94;5012460;28;20084;-78
2023/02/11 00:18:40;;;;;;;35.03;22.02;;;;;;;1.49;91.81;102204.78;5012701;28;20045;-79
2023/02/11 00:21:14;;;;;;;39.20;21.38;;;;;;;1.57;91.84;102191.28;5010889;28;20090;-78
2023/02/11 00:23:40;;;;;;;38.20;21.15;;;;;;;1.54;91.52;102185.09;5014333;28;20511;-78
2023/02/11 00:26:14;;;;;;;37.25;22.08;;;;;;;1.58;91.97;102170.56;5010374;28;20034;-78
2023/02/11 00:28:41;;;;;;;41.03;21.55;;;;;;;1.57;92.01;102168.75;5022974;28;20331;-78
2023/02/11 00:31:10;;;;;;;37.83;22.05;;;;;;;1.54;92.11;102168.59;5015874;28;20045;-78
2023/02/11 00:33:36;;;;;;;34.85;20.50;;;;;;;1.58;92.21;102152.34;5015706;28;20074;-77
2023/02/11 00:36:06;;;;;;;35.40;20.13;;;;;;;1.59;92.02;102148.91;5015726;28;20037;-78
2023/02/11 00:38:32;;;;;;;33.90;20.65;;;;;;;1.61;92.05;102149.91;5010460;28;20038;-77
2023/02/11 00:40:57;;;;;;;46.70;20.92;;;;;;;1.64;92.26;102142.28;5017211;28;20465;-78
2023/02/11 00:43:24;;;;;;;43.63;20.55;;;;;;;1.66;92.29;102150.16;5014596;28;20042;-78
2023/02/11 00:45:49;;;;;;;38.17;21.23;;;;;;;1.69;92.17;102155.53;5015940;28;20629;-78
2023/02/11 00:48:15;;;;;;;36.15;21.42;;;;;;;1.67;92.03;102150.25;5015909;28;20481;-78
2023/02/11 00:50:40;;;;;;;35.65;19.65;;;;;;;1.71;92.16;102151.31;5013765;28;20037;-78
2023/02/11 00:53:05;;;;;;;33.90;20.70;;;;;;;1.70;91.87;102154.72;5016330;28;20033;-78
2023/02/11 00:55:31;;;;;;;40.60;20.85;;;;;;;1.68;92.44;102164.19;5013382;28;20050;-78
2023/02/11 00:57:58;;;;;;;39.17;20.65;;;;;;;1.64;92.69;102164.81;5016342;28;20104;-78
2023/02/11 01:00:24;;;;;;;33.55;19.73;;;;;;;1.61;92.50;102164.63;5010938;28;20092;-78
2023/02/11 01:02:50;;;;;;;34.75;19.60;;;;;;;1.59;93.64;102163.66;5014480;28;20034;-78
2023/02/11 01:05:15;;;;;;;39.00;20.58;;;;;;;1.64;93.29;102155.28;5011856;28;20040;-77
2023/02/11 01:07:40;;;;;;;33.55;20.83;;;;;;;1.68;93.31;102151.16;5011783;28;20068;-78
2023/02/11 01:10:06;;;;;;;37.05;19.30;;;;;;;1.70;93.33;102144.31;5015314;28;20040;-78
2023/02/11 01:12:31;;;;;;;35.22;21.85;;;;;;;1.73;93.14;102142.78;5007572;28;20112;-78
2023/02/11 01:14:57;;;;;;;35.15;20.85;;;;;;;1.81;92.94;102142.28;5013073;28;20038;-77
2023/02/11 01:17:22;;;;;;;36.80;19.95;;;;;;;1.85;92.79;102139.06;5011501;28;20042;-77
2023/02/11 01:19:48;;;;;;;33.55;19.88;;;;;;;1.90;92.81;102135.91;5012619;28;20037;-78
2023/02/11 01:22:14;;;;;;;36.47;19.98;;;;;;;1.97;92.17;102132.81;5009784;28;20034;-78
2023/02/11 01:24:39;;;;;;;33.33;19.73;;;;;;;2.07;91.90;102135.91;5013013;28;20038;-78
2023/02/11 01:27:06;;;;;;;29.55;18.90;;;;;;;2.16;91.78;102126.88;5011018;28;20042;-78
2023/02/11 01:29:32;;;;;;;34.25;18.38;;;;;;;2.20;91.36;102117.53;5010161;28;20501;-77
2023/02/11 01:31:59;;;;;;;29.55;20.00;;;;;;;2.26;91.06;102119.59;5009919;28;20030;-78
2023/02/11 01:34:24;;;;;;;33.33;18.33;;;;;;;2.32;91.36;102117.28;5009654;28;20112;-78
2023/02/11 01:36:49;;;;;;;35.70;18.45;;;;;;;2.39;90.64;102111.59;5012757;28;20033;-77
2023/02/11 01:39:15;;;;;;;27.77;18.13;;;;;;;2.45;90.63;102101.47;5014042;28;20081;-78
2023/02/11 01:41:40;;;;;;;30.27;19.33;;;;;;;2.55;90.16;102089.81;5013687;28;20073;-77
2023/02/11 01:44:26;;;;;;;34.92;19.15;;;;;;;2.61;89.97;102111.88;5013508;28;20035;-78
2023/02/11 01:46:52;;;;;;;31.95;18.42;;;;;;;2.64;89.76;102101.59;5008541;28;20069;-77
2023/02/11 01:49:22;;;;;;;34.25;18.83;;;;;;;2.70;89.20;102106.25;5009909;28;20025;-77
2023/02/11 01:52:00;;;;;;;27.50;18.50;;;;;;;2.75;88.91;102112.59;5009301;28;20030;-77
2023/02/11 01:57:21;;;;;;;30.20;19.02;;;;;;;2.86;88.86;102092.28;5012790;28;20038;-78
2023/02/11 01:59:55;;;;;;;26.23;17.73;;;;;;;2.94;89.05;102092.66;5013955;28;20073;-78
2023/02/11 02:02:28;;;;;;;34.97;19.05;;;;;;;2.96;88.21;102099.75;5011634;28;20030;-78
2023/02/11 02:05:40;;;;;;;33.58;19.35;;;;;;;3.04;88.00;102093.19;5013014;28;20034;-77
2023/02/11 02:08:26;;;;;;;33.47;18.67;;;;;;;3.04;87.74;102093.19;4995563;28;20053;-77
2023/02/11 02:10:55;;;;;;;36.17;18.42;;;;;;;2.99;88.36;102081.63;5007463;28;20431;-78
2023/02/11 02:13:24;;;;;;;27.05;18.15;;;;;;;2.99;88.04;102071.19;5003013;28;20090;-77
2023/02/11 02:16:12;;;;;;;34.22;19.35;;;;;;;2.94;88.48;102080.50;5009835;28;20083;-78
2023/02/11 02:18:51;;;;;;;37.88;18.67;;;;;;;2.87;88.98;102078.41;5007843;28;20030;-78
2023/02/11 02:21:38;;;;;;;31.00;18.27;;;;;;;2.85;88.76;102077.44;5010001;28;20057;-78
2023/02/11 02:24:28;;;;;;;39.55;19.83;;;;;;;2.82;89.12;102077.28;5010529;28;20062;-78
2023/02/11 02:27:18;;;;;;;29.85;17.75;;;;;;;2.77;89.43;102070.94;5007404;28;20057;-78
2023/02/11 02:29:46;;;;;;;30.08;18.58;;;;;;;2.77;89.49;102052.69;5006940;28;20033;-78
2023/02/11 02:32:31;;;;;;;31.02;17.88;;;;;;;2.83;89.46;102058.22;5006956;28;20037;-78
2023/02/11 02:35:11;;;;;;;27.08;18.48;;;;;;;2.87;89.25;102059.28;5011525;28;20054;-77
2023/02/11 02:38:00;;;;;;;34.47;19.75;;;;;;;3.02;88.77;102080.91;5010930;28;20039;-78
2023/02/11 02:40:36;;;;;;;32.75;18.85;;;;;;;3.06;88.45;102082.81;5009495;28;20026;-77
2023/02/11 02:43:03;;;;;;;32.40;20.67;;;;;;;3.15;88.29;102085.88;5014596;28;20056;-78
2023/02/11 02:45:28;;;;;;;28.45;18.25;;;;;;;3.22;87.46;102081.84;5011279;28;20042;-78
2023/02/11 02:47:53;;;;;;;29.25;18.42;;;;;;;3.24;86.79;102064.56;5012367;28;20272;-78
2023/02/11 02:50:29;;;;;;;28.73;18.60;;;;;;;3.31;86.91;102056.22;5011020;28;20109;-78
2023/02/11 02:53:18;;;;;;;32.03;19.15;;;;;;;3.39;86.23;102041.81;5011530;28;20097;-78
2023/02/11 02:55:57;;;;;;;31.48;19.20;;;;;;;3.42;85.97;102048.88;5015656;28;20030;-78
2023/02/11 02:58:44;;;;;;;28.67;18.05;;;;;;;3.44;85.86;102047.25;5011252;28;20093;-78
2023/02/11 03:01:30;;;;;;;32.08;19.73;;;;;;;3.47;85.47;102040.44;5013876;28;20041;-78
2023/02/11 03:04:07;;;;;;;32.08;19.70;;;;;;;3.43;85.45;102024.56;5009919;28;20038;-78
2023/02/11 03:06:44;;;;;;;32.95;19.17;;;;;;;3.51;85.71;102018.91;5008645;28;20026;-78
2023/02/11 03:09:18;;;;;;;35.95;18.65;;;;;;;3.55;85.59;102029.47;5012269;28;20038;-78
2023/02/11 03:11:44;;;;;;;32.53;18.38;;;;;;;3.58;85.12;102020.06;5006985;28;20034;-78
2023/02/11 03:14:14;;;;;;;36.33;20.98;;;;;;;3.54;85.32;102012.94;5009786;28;20053;-78
2023/02/11 03:16:41;;;;;;;30.95;18.48;;;;;;;3.60;85.25;102001.88;5014040;28;20037;-78
2023/02/11 03:19:43;;;;;;;29.08;19.02;;;;;;;3.64;85.00;102009.00;5011423;28;20378;-78
2023/02/11 03:22:17;;;;;;;29.42;19.08;;;;;;;3.62;85.04;102002.84;4966716;28;20130;-78
2023/02/11 03:24:43;;;;;;;34.25;21.00;;;;;;;3.69;84.86;101999.66;5008019;28;20049;-78
2023/02/11 03:27:20;;;;;;;30.88;18.83;;;;;;;3.72;84.45;102002.41;5006598;28;20057;-77
2023/02/11 03:30:13;;;;;;;32.40;20.27;;;;;;;3.77;84.37;102005.22;5014143;28;20098;-77
2023/02/11 03:32:46;;;;;;;30.35;18.50;;;;;;;3.78;84.19;101992.25;5013071;28;20560;-78
2023/02/11 03:35:26;;;;;;;26.92;18.75;;;;;;;3.83;83.98;101995.06;5014050;28;20041;-77
2023/02/11 03:38:01;;;;;;;30.80;19.35;;;;;;;3.84;84.31;101994.25;5009122;28;20069;-78
2023/02/11 03:40:34;;;;;;;33.70;17.38;;;;;;;3.92;83.99;101998.97;5014146;28;20039;-78
2023/02/11 03:43:01;;;;;;;;;;;;;;;3.86;84.23;102003.03;5013557;28;20030;-78
2023/02/11 03:45:27;;;;;;;33.70;19.58;;;;;;;3.92;84.01;102001.59;5017645;28;19928;-77
2023/02/11 03:47:58;;;;;;;30.13;19.33;;;;;;;3.89;84.15;101985.78;5010347;28;20096;-78
2023/02/11 03:50:26;;;;;;;37.15;20.38;;;;;;;3.92;84.02;101995.47;5016471;28;20042;-78
2023/02/11 03:52:54;;;;;;;29.95;18.65;;;;;;;3.92;84.62;101996.34;5008453;28;20065;-76
2023/02/11 03:55:24;;;;;;;31.02;20.52;;;;;;;3.98;84.57;101989.63;5014339;28;20038;-77
2023/02/11 03:57:50;;;;;;;31.85;20.55;;;;;;;3.95;84.31;101991.25;5013415;28;20045;-77
2023/02/11 04:00:16;;;;;;;36.85;20.33;;;;;;;3.99;84.46;101980.97;5013676;28;20038;-77
2023/02/11 04:02:41;;;;;;;31.52;20.63;;;;;;;4.02;84.62;101988.94;5007473;23;20084;-73
2023/02/11 04:05:09;;;;;;;37.38;20.50;;;;;;;3.98;84.07;101987.00;4982747;28;20038;-73
2023/02/11 04:07:34;;;;;;;30.98;19.45;;;;;;;4.04;84.43;101989.91;4982987;28;20061;-73
2023/02/11 04:10:00;;;;;;;31.45;19.48;;;;;;;4.04;84.02;102000.34;4986174;28;20081;-73
2023/02/11 04:12:25;;;;;;;35.90;19.73;;;;;;;3.97;84.27;102008.75;4988006;28;20041;-73
2023/02/11 04:14:51;;;;;;;34.78;19.83;;;;;;;3.97;83.98;102006.13;4968341;28;20148;-73
2023/02/11 04:17:17;;;;;;;37.55;19.25;;;;;;;3.99;84.47;101996.66;4985604;28;20069;-73
2023/02/11 04:19:42;;;;;;;38.33;20.17;;;;;;;3.99;84.55;101994.94;4982530;28;20067;-73
2023/02/11 04:22:08;;;;;;;34.75;20.27;;;;;;;3.97;84.66;102003.53;4986637;28;20508;-73
2023/02/11 04:24:33;;;;;;;32.35;19.15;;;;;;;3.94;84.57;102005.16;4983902;28;20391;-73
2023/02/11 04:26:59;;;;;;;30.83;19.02;;;;;;;3.97;85.25;102003.53;4986905;28;20089;-73
2023/02/11 04:29:24;;;;;;;36.80;20.60;;;;;;;4.00;85.38;102009.75;4991032;28;20049;-73
2023/02/11 04:31:49;;;;;;;32.90;19.98;;;;;;;3.93;86.07;102003.38;4983392;28;20069;-73
2023/02/11 04:34:15;;;;;;;32.40;19.80;;;;;;;3.92;86.82;102012.03;4987118;28;20053;-73
2023/02/11 04:36:40;;;;;;;36.85;21.42;;;;;;;3.91;86.50;102004.16;4982567;28;20043;-73
2023/02/11 04:39:06;;;;;;;37.40;22.17;;;;;;;3.89;86.96;102005.78;4990441;28;20034;-72
2023/02/11 04:41:31;;;;;;;35.63;20.27;;;;;;;3.84;88.35;102008.19;4983131;28;20054;-71
2023/02/11 04:43:56;;;;;;;30.63;20.13;;;;;;;3.77;89.85;101995.66;4989762;28;20062;-71
2023/02/11 04:46:22;;;;;;;36.75;22.17;;;;;;;3.74;91.01;101999.03;4984798;28;20046;-71
2023/02/11 04:48:47;;;;;;;35.10;21.55;;;;;;;3.68;92.96;102003.09;4986422;28;20066;-71
2023/02/11 04:51:12;;;;;;;36.30;21.48;;;;;;;3.64;93.94;101998.56;4986815;28;20030;-71
2023/02/11 04:53:38;;;;;;;33.83;20.88;;;;;;;3.62;94.14;102006.34;4986304;28;20425;-71
2023/02/11 04:56:03;;;;;;;35.13;21.58;;;;;;;3.62;95.23;102002.84;4982919;28;20549;-71
2023/02/11 04:58:29;;;;;;;38.63;22.13;;;;;;;3.64;95.00;102003.78;4988991;28;20517;-71
2023/02/11 05:00:54;;;;;;;32.90;21.48;;;;;;;3.63;95.42;102002.88;4986570;28;20038;-71
2023/02/11 05:03:19;;;;;;;37.90;23.15;;;;;;;3.66;95.74;101997.81;4989349;28;20113;-71
2023/02/11 05:05:45;;;;;;;37.33;23.25;;;;;;;3.68;96.11;102003.09;4982913;28;20074;-71
2023/02/11 05:08:11;;;;;;;39.60;23.13;;;;;;;3.72;95.98;102000.72;4987870;28;20034;-71
2023/02/11 05:10:37;;;;;;;36.15;20.08;;;;;;;3.74;96.04;102003.38;4987527;28;20031;-71
2023/02/11 05:13:02;;;;;;;39.10;21.48;;;;;;;3.73;96.32;101993.75;4989052;28;20033;-71
2023/02/11 05:15:27;;;;;;;41.53;23.13;;;;;;;3.74;96.64;101990.31;4984274;28;20065;-71
2023/02/11 05:17:53;;;;;;;37.38;21.95;;;;;;;3.79;96.20;101987.91;4989978;28;20377;-71
2023/02/11 05:20:19;;;;;;;39.70;22.45;;;;;;;3.84;96.31;101981.19;4984706;28;20045;-71
2023/02/11 05:22:44;;;;;;;39.13;21.33;;;;;;;3.87;96.16;101982.19;4983962;28;20489;-71
2023/02/11 05:25:09;;;;;;;36.72;21.20;;;;;;;3.89;95.64;101985.78;4984589;28;20046;-71
2023/02/11 05:27:35;;;;;;;35.90;21.85;;;;;;;3.88;95.99;101968.34;4983212;28;20117;-71
2023/02/11 05:30:00;;;;;;;35.10;22.48;;;;;;;3.93;95.68;101966.81;4987572;28;20034;-71
2023/02/11 05:32:26;;;;;;;36.33;21.92;;;;;;;3.94;96.13;101967.72;4984530;28;20057;-71
2023/02/11 05:34:51;;;;;;;44.25;23.50;;;;;;;3.94;96.28;101967.72;4983993;28;20129;-71
2023/02/11 05:37:16;;;;;;;40.60;23.30;;;;;;;3.97;96.07;101967.84;4983491;28;20093;-71
2023/02/11 05:39:42;;;;;;;39.00;22.25;;;;;;;4.01;96.37;101964.53;4966352;28;20038;-71
2023/02/11 05:42:07;;;;;;;36.95;22.92;;;;;;;3.98;96.56;101958.28;4984125;28;20035;-71
2023/02/11 05:44:32;;;;;;;43.78;23.85;;;;;;;3.98;97.08;101960.88;4983652;28;20049;-71
2023/02/11 05:46:58;;;;;;;37.72;21.85;;;;;;;4.03;97.19;101968.09;4985400;28;20037;-71
2023/02/11 05:49:23;;;;;;;42.25;22.20;;;;;;;4.04;97.36;101958.56;4983263;28;20045;-71
2023/02/11 05:51:48;;;;;;;36.63;21.85;;;;;;;4.09;96.89;101967.50;4984202;28;20031;-71
2023/02/11 05:54:14;;;;;;;46.08;23.40;;;;;;;4.05;97.37;101952.50;4989399;28;20145;-71
2023/02/11 05:56:39;;;;;;;37.30;23.17;;;;;;;4.06;97.66;101955.19;4983701;28;20050;-71
2023/02/11 05:59:04;;;;;;;36.08;22.50;;;;;;;4.09;97.60;101951.81;4984577;28;20042;-71
2023/02/11 06:01:30;;;;;;;41.58;25.00;;;;;;;4.11;97.09;101944.91;4985392;28;20077;-71
2023/02/11 06:03:55;;;;;;;38.47;22.92;;;;;;;4.15;97.08;101952.06;4983776;28;20074;-71
2023/02/11 06:06:20;;;;;;;36.65;21.00;;;;;;;4.17;97.04;101945.19;4983734;28;20050;-71
2023/02/11 06:08:46;;;;;;;42.80;21.73;;;;;;;4.18;96.75;101933.91;4982610;28;20054;-71
2023/02/11 06:11:14;;;;;;;36.17;21.30;;;;;;;4.21;96.44;101930.53;4988517;28;20037;-71
2023/02/11 06:13:39;;;;;;;41.92;21.45;;;;;;;4.18;96.11;101926.94;4984985;28;20034;-71
2023/02/11 06:16:05;;;;;;;41.80;22.98;;;;;;;4.22;96.41;101932.28;4981044;28;20121;-71
2023/02/11 06:18:32;;;;;;;35.90;21.67;;;;;;;4.25;95.69;101943.78;4985159;28;20076;-73
2023/02/11 06:20:58;;;;;;;32.47;21.45;;;;;;;4.24;95.23;101934.16;4982716;28;20502;-73
2023/02/11 06:23:24;;;;;;;32.95;20.55;;;;;;;4.25;94.93;101932.44;4984700;28;20038;-73
2023/02/11 06:25:50;;;;;;;32.70;20.73;;;;;;;4.30;94.57;101925.69;4981036;28;20039;-73
2023/02/11 06:28:16;;;;;;;33.35;20.02;;;;;;;4.29;94.10;101924.78;4987620;28;20045;-73
2023/02/11 06:30:41;;;;;;;42.85;21.85;;;;;;;4.28;94.02;101925.63;4989053;28;20038;-73
2023/02/11 06:33:06;;;;;;;38.17;20.73;;;;;;;4.33;93.72;101916.25;4981872;28;20122;-73
2023/02/11 06:35:34;;;;;;;38.33;21.13;;;;;;;4.37;93.01;101925.09;4985213;28;20038;-73
2023/02/11 06:38:00;;;;;;;33.85;19.88;;;;;;;4.33;92.68;101916.25;4983627;28;20037;-73
2023/02/11 06:40:25;;;;;;;30.00;13.80;;;;;;;4.32;92.51;101926.63;4982164;28;20035;-73
2023/02/11 06:42:50;;;;;;;28.55;12.70;;;;;;;4.37;91.71;101918.13;4983321;28;20635;-73
2023/02/11 06:45:16;;;;;;;25.23;11.00;;;;;;;4.38;91.26;101925.19;4987485;28;20118;-73
2023/02/11 06:47:41;;;;;;;24.67;10.07;;;;;;;4.42;90.47;101927.91;4982854;28;20044;-73
2023/02/11 06:50:10;;;;;;;26.40;11.50;;;;;;;4.46;89.66;101922.88;4984260;28;20051;-73
2023/02/11 06:52:35;;;;;;;23.38;10.63;;;;;;;4.46;89.20;101930.72;4982406;28;20066;-73
2023/02/11 06:55:01;;;;;;;24.48;10.60;;;;;;;4.45;89.65;101935.88;4982878;28;20121;-73
2023/02/11 06:57:26;;;;;;;28.70;10.93;;;;;;;4.49;89.30;101927.34;4964502;28;20046;-73
2023/02/11 06:59:52;;;;;;;29.60;11.40;;;;;;;4.50;89.08;101929.13;4984410;28;20390;-72
2023/02/11 07:02:17;;;;;;;25.63;10.88;;;;;;;4.55;88.74;101918.00;4986325;28;20489;-73
2023/02/11 07:04:42;;;;;;;27.08;10.90;;;;;;;4.58;88.39;101925.09;4982482;28;20046;-72
2023/02/11 07:07:08;;;;;;;22.65;11.20;;;;;;;4.56;88.85;101932.88;4985060;28;20050;-73
2023/02/11 07:09:33;;;;;;;21.98;10.32;;;;;;;4.64;88.30;101943.66;4981685;28;20050;-73
2023/02/11 07:11:58;;;;;;;24.50;11.13;;;;;;;4.67;87.73;101946.41;4983091;28;20145;-73
2023/02/11 07:14:24;;;;;;;26.55;13.07;;;;;;;4.60;88.51;101952.19;4981615;28;20046;-72
2023/02/11 07:16:49;;;;;;;25.92;11.18;;;;;;;4.61;88.51;101940.88;4982666;28;20045;-73
2023/02/11 07:19:15;;;;;;;24.20;10.77;;;;;;;4.63;88.38;101949.69;4985012;28;20112;-73
2023/02/11 07:21:40;;;;;;;25.88;11.90;;;;;;;4.69;88.42;101946.44;4986117;28;20027;-72
2023/02/11 07:24:07;;;;;;;28.73;12.80;;;;;;;4.65;88.63;101940.19;4981208;28;20038;-73
2023/02/11 07:26:32;;;;;;;25.38;11.00;;;;;;;4.61;89.03;101943.50;4983054;28;20472;-73
2023/02/11 07:28:58;;;;;;;25.60;11.27;;;;;;;4.65;89.36;101949.78;4981585;28;20043;-73
2023/02/11 07:31:27;;;;;;;28.23;11.13;;;;;;;4.65;89.51;101958.50;4984071;28;20065;-73
2023/02/11 07:33:53;;;;;;;24.67;11.52;;;;;;;4.60;89.54;101944.34;4980432;28;20037;-73
2023/02/11 07:36:19;;;;;;;23.33;10.73;;;;;;;4.61;89.80;101951.34;4985960;28;20129;-73
2023/02/11 07:38:44;;;;;;;27.13;11.70;;;;;;;4.60;89.64;101944.34;4990096;28;20475;-73
2023/02/11 07:41:13;;;;;;;28.30;12.43;;;;;;;4.63;89.55;101952.31;4986754;28;20117;-73
2023/02/11 07:43:39;;;;;;;22.50;10.60;;;;;;;4.63;89.24;101951.44;4989362;28;20054;-73
2023/02/11 07:46:07;;;;;;;24.80;11.38;;;;;;;4.61;89.57;101941.81;4987372;28;20126;-73
2023/02/11 07:48:32;;;;;;;20.10;9.18;;;;;;;4.68;89.42;101949.91;4988895;28;20508;-73
2023/02/11 07:51:08;;;;;;;26.30;11.50;;;;;;;4.66;89.00;101933.25;4996059;28;20046;-72
2023/02/11 07:53:34;;;;;;;27.50;12.18;;;;;;;4.63;89.28;101946.19;4990902;28;20400;-73
2023/02/11 07:55:59;;;;;;;25.95;11.40;;;;;;;4.63;89.18;101954.03;4986572;28;20047;-73
2023/02/11 07:58:24;;;;;;;22.48;11.02;;;;;;;4.64;88.96;101948.88;4989908;28;20081;-73
2023/02/11 08:00:50;;;;;;;28.23;11.80;;;;;;;4.70;88.95;101946.50;4987586;28;20045;-72
2023/02/11 08:03:15;;;;;;;26.02;11.95;;;;;;;4.72;88.66;101947.47;4996623;28;20029;-73
2023/02/11 08:05:41;;;;;;;25.35;11.43;;;;;;;4.78;88.18;101939.84;4990356;28;20408;-73
2023/02/11 08:08:06;;;;;;;24.67;10.63;;;;;;;4.79;88.40;101935.50;4986498;28;20501;-73
2023/02/11 08:10:31;;;;;;;23.55;10.73;;;;;;;4.82;87.43;101933.94;4993601;28;20121;-73
2023/02/11 08:12:57;;;;;;;23.88;10.93;;;;;;;4.91;87.28;101938.63;4993272;28;20034;-73
2023/02/11 08:15:22;;;;;;;23.60;10.88;;;;;;;4.91;87.37;101929.91;4994355;28;20048;-71
2023/02/11 08:17:47;;;;;;;31.23;12.73;;;;;;;4.91;87.22;101937.75;4992452;28;20108;-71
2023/02/11 08:20:13;;;;;;;27.13;11.25;;;;;;;4.88;87.40;101932.41;4989989;28;20074;-71
2023/02/11 08:22:38;;;;;;;24.80;10.80;;;;;;;4.94;87.09;101927.38;4986115;28;20033;-70
2023/02/11 08:25:03;;;;;;;32.20;12.82;;;;;;;4.93;87.01;101931.75;4991292;28;20038;-71
2023/02/11 08:27:29;;;;;;;28.73;11.25;;;;;;;4.98;87.24;101929.31;4989219;28;20416;-71
2023/02/11 08:29:55;;;;;;;24.45;11.10;;;;;;;4.94;87.47;101941.34;4986773;28;20689;-71
2023/02/11 08:32:21;;;;;;;23.85;10.02;;;;;;;5.01;87.53;101945.13;4993043;28;20030;-71
2023/02/11 08:34:53;;;;;;;23.42;10.95;;;;;;;5.04;86.99;101945.25;4986992;28;20050;-71
2023/02/11 08:37:19;;;;;;;20.52;9.65;;;;;;;4.96;87.44;101941.44;4990657;28;20611;-71
2023/02/11 08:39:46;;;;;;;20.67;11.07;;;;;;;5.05;87.34;101936.53;4988090;28;20038;-71
2023/02/11 08:42:12;;;;;;;20.83;10.55;;;;;;;4.99;87.80;101931.06;4988052;28;20038;-71
2023/02/11 08:44:37;;;;;;;14.73;8.65;;;;;;;5.04;87.57;101940.88;4987764;28;20121;-71
2023/02/11 08:47:02;;;;;;;23.38;10.57;;;;;;;5.15;87.81;101943.91;4990940;28;20126;-71
2023/02/11 08:49:29;;;;;;;21.42;10.88;;;;;;;5.17;87.47;101937.03;4991334;28;20042;-71
2023/02/11 08:51:55;;;;;;;23.13;10.63;;;;;;;5.22;87.03;101930.25;4984642;28;20974;-71
2023/02/11 08:54:20;;;;;;;18.30;8.80;;;;;;;5.32;87.33;101930.56;4985748;28;20076;-70
2023/02/11 08:56:50;;;;;;;20.35;10.20;;;;;;;5.29;87.06;101944.44;4983398;28;20410;-71
2023/02/11 08:59:16;;;;;;;16.25;9.23;;;;;;;5.32;87.54;101957.66;4991796;28;20030;-71
2023/02/11 09:01:42;;;;;;;19.20;9.30;;;;;;;5.33;87.15;101953.31;4986379;28;20097;-71
2023/02/11 09:04:09;;;;;;;23.33;10.68;;;;;;;5.35;86.86;101951.66;4990012;28;20042;-70
2023/02/11 09:06:34;;;;;;;21.90;9.45;;;;;;;5.26;87.76;101973.13;4982152;28;20153;-70
2023/02/11 09:08:59;;;;;;;19.98;9.20;;;;;;;5.23;87.58;101986.09;4986361;28;20064;-71
2023/02/11 09:11:28;;;;;;;16.75;9.27;;;;;;;5.23;88.12;101960.81;4990442;28;20038;-73
2023/02/11 09:13:54;;;;;;;26.27;10.63;;;;;;;5.21;88.16;101961.56;4985584;28;20037;-70
2023/02/11 09:16:22;;;;;;;23.98;9.60;;;;;;;5.34;88.28;101976.03;4987445;28;20043;-71
2023/02/11 09:18:48;;;;;;;16.80;9.18;;;;;;;5.41;88.06;101978.06;4985003;28;20030;-71
2023/02/11 09:21:15;;;;;;;21.98;9.60;;;;;;;5.44;87.17;101978.16;4983834;28;20405;-71
2023/02/11 09:23:42;;;;;;;19.88;10.90;;;;;;;5.55;87.20;101981.19;4990424;28;20049;-71
2023/02/11 09:26:20;;;;;;;17.98;8.57;;;;;;;5.63;86.88;101972.81;4984048;28;20401;-71
2023/02/11 09:28:46;;;;;;;17.90;9.35;;;;;;;5.64;86.71;101965.84;4982542;28;20045;-71
2023/02/11 09:31:14;;;;;;;15.40;9.25;;;;;;;5.70;86.26;101966.94;4992984;28;20051;-71
2023/02/11 09:33:46;;;;;;;19.25;10.02;;;;;;;5.68;86.77;101954.63;4986846;28;20042;-71
2023/02/11 09:36:15;;;;;;;18.83;9.97;;;;;;;5.64;86.49;101955.34;4983963;28;20066;-71
2023/02/11 09:38:40;;;;;;;26.75;11.00;;;;;;;5.70;86.39;101960.81;4984133;28;20117;-71
2023/02/11 09:41:22;;;;;;;20.17;9.35;;;;;;;5.82;86.43;101955.13;4983666;28;20125;-71
2023/02/11 09:43:50;;;;;;;16.02;8.55;;;;;;;5.90;86.62;101953.69;4986910;28;20085;-71
2023/02/11 09:46:17;;;;;;;21.20;9.00;;;;;;;6.03;85.38;101949.81;4984328;28;20564;-70
2023/02/11 09:48:45;;;;;;;18.67;9.02;;;;;;;6.03;85.18;101955.03;4987638;28;20070;-71
2023/02/11 09:51:19;;;;;;;18.42;9.27;;;;;;;6.06;84.64;101950.78;4983440;28;20046;-71
2023/02/11 09:53:48;;;;;;;20.42;9.48;;;;;;;5.97;85.25;101950.44;4965372;28;20552;-71
2023/02/11 09:56:14;;;;;;;20.73;9.48;;;;;;;5.90;85.98;101953.69;4986820;28;20497;-71
2023/02/11 09:58:42;;;;;;;19.80;10.60;;;;;;;5.92;86.59;101949.34;4985413;28;20042;-71
2023/02/11 10:01:20;;;;;;;20.67;10.15;;;;;;;6.06;86.29;101939.41;4990980;28;20521;-71
2023/02/11 10:04:10;;;;;;;18.75;10.15;;;;;;;6.11;85.47;101932.59;4983050;28;20042;-71
2023/02/11 10:06:45;;;;;;;17.75;9.23;;;;;;;6.14;85.56;101941.47;4989447;28;20039;-71
2023/02/11 10:09:25;;;;;;;25.98;10.25;;;;;;;6.21;86.02;101923.31;4982673;28;20049;-71
2023/02/11 10:12:08;;;;;;;15.98;9.35;;;;;;;6.26;86.28;101911.25;4982387;28;20117;-71
2023/02/11 10:15:02;;;;;;;22.58;9.00;;;;;;;6.48;85.27;101923.34;4981997;28;20054;-71
2023/02/11 10:18:00;;;;;;;21.77;9.02;;;;;;;6.52;84.40;101935.72;4991651;28;20045;-71
2023/02/11 10:20:52;;;;;;;15.65;8.23;;;;;;;6.52;85.03;101934.00;4981385;28;20105;-71
2023/02/11 10:23:24;;;;;;;19.88;9.27;;;;;;;6.57;85.03;101945.50;4981104;28;20042;-72
2023/02/11 10:25:56;;;;;;;20.48;9.80;;;;;;;6.53;84.98;101948.00;4981393;28;20050;-71
2023/02/11 10:28:26;;;;;;;16.90;9.30;;;;;;;6.52;85.21;101939.25;4987414;28;20116;-70
2023/02/11 10:31:14;;;;;;;18.75;9.57;;;;;;;6.53;84.83;101930.53;4987515;28;20045;-71
2023/02/11 10:34:03;;;;;;;19.13;8.90;;;;;;;6.58;84.77;101921.09;4982692;28;20039;-71
2023/02/11 10:36:33;;;;;;;17.67;8.65;;;;;;;6.55;84.91;101923.59;4981524;28;20133;-71
2023/02/11 10:39:19;;;;;;;18.35;8.82;;;;;;;6.45;86.25;101926.78;4987017;28;20133;-71
2023/02/11 10:41:56;;;;;;;23.13;10.68;;;;;;;6.44;86.78;101921.47;4987079;28;20045;-71
2023/02/11 10:44:27;;;;;;;18.60;8.65;;;;;;;6.50;86.30;101926.94;4983223;28;20042;-71
2023/02/11 10:46:54;;;;;;;17.67;8.50;;;;;;;6.45;87.00;101929.38;4981049;28;20122;-71
2023/02/11 10:49:43;;;;;;;22.42;9.45;;;;;;;6.41;87.57;101922.25;4991707;28;20038;-71
2023/02/11 10:52:18;;;;;;;18.30;8.75;;;;;;;6.40;87.73;101922.22;4990071;28;20038;-70
2023/02/11 10:54:59;;;;;;;20.02;9.20;;;;;;;6.43;87.28;101946.81;4980948;28;20070;-71
2023/02/11 10:57:36;;;;;;;19.42;8.18;;;;;;;6.31;88.21;101925.41;4981631;28;20042;-71
2023/02/11 11:00:19;;;;;;;16.65;7.18;;;;;;;6.24;89.63;101939.16;4987485;28;20030;-70
2023/02/11 11:02:51;;;;;;;21.50;9.77;;;;;;;6.24;89.10;101920.81;4983017;28;20031;-71
2023/02/11 11:05:20;;;;;;;17.98;8.85;;;;;;;6.21;89.61;101933.78;4988454;28;20042;-71
2023/02/11 11:07:58;;;;;;;21.60;8.85;;;;;;;6.22;89.47;101941.72;4980321;28;20046;-71
2023/02/11 11:10:47;;;;;;;22.15;10.90;;;;;;;6.24;89.88;101939.16;4983954;28;20128;-70
2023/02/11 11:13:25;;;;;;;17.85;8.93;;;;;;;6.32;89.99;101938.56;4981832;28;20034;-71
2023/02/11 11:16:07;;;;;;;20.38;10.05;;;;;;;6.29;90.55;101935.84;4980107;28;20042;-71
2023/02/11 11:18:33;;;;;;;20.63;10.75;;;;;;;6.31;90.31;101938.50;4987341;28;20528;-71
2023/02/11 11:21:06;;;;;;;20.80;8.60;;;;;;;6.26;90.87;101942.72;4982575;28;20073;-71
2023/02/11 11:23:34;;;;;;;17.50;8.68;;;;;;;6.25;91.02;101936.56;4986378;28;20533;-71
2023/02/11 11:26:04;;;;;;;22.98;9.85;;;;;;;6.30;90.91;101928.88;4982876;28;20046;-71
2023/02/11 11:28:37;;;;;;;19.65;7.47;;;;;;;6.27;90.71;101923.53;4980307;28;20117;-70
2023/02/11 11:31:04;;;;;;;23.65;9.35;;;;;;;6.28;91.44;101920.94;4987508;28;20034;-71
2023/02/11 11:33:34;;;;;;;21.05;9.95;;;;;;;6.35;90.70;101933.44;4987338;28;20405;-70